Highview, Kentucky
Current Conditions -  °F | °C
As of 5:56 PM on Thursday 18 Dec 2014 (Local Time) from KSDF Reporting Station
Overcast Overcast  
Wind Chill: 29°   Ceiling: 8500
Heat Index: 33°   Visibility: 8mi
Dew Point: 24°   Wind: 5mph
Humidity: 70%   Direction: 360°N
Pressure: 30.23"   Gusts: NA
Location:  38.14°N, 85.64°W
Report Text: KSDF 182256Z 36004KT 8SM FEW023 SCT055 OVC085 01/M04 A3023 RMK AO2 SNB05E19 SLP241 P0000 T00061044
Loading
Personal Weather Stations






























Interactive Weather Map New forecast layout! Learn more

10-Day Weather Forecast

Advertisements
Track Severe Weather on mobile